createdAt,value
2023-02-11T00:02:48.134Z,1.77
2023-02-11T00:07:49.715Z,1.78
2023-02-11T00:12:51.266Z,1.84
2023-02-11T00:17:52.802Z,1.83
2023-02-11T00:22:54.341Z,1.79
2023-02-11T00:27:55.879Z,1.86
2023-02-11T00:32:57.374Z,1.88
2023-02-11T00:37:58.938Z,1.87
2023-02-11T00:43:00.546Z,1.84
2023-02-11T00:48:02.092Z,1.90
2023-02-11T00:53:03.606Z,1.94
2023-02-11T00:58:05.226Z,1.92
2023-02-11T01:03:06.768Z,1.87
2023-02-11T01:08:08.313Z,1.84
2023-02-11T01:13:10.407Z,1.92
2023-02-11T01:18:11.983Z,1.96
2023-02-11T01:23:13.513Z,1.95
2023-02-11T01:28:20.863Z,1.90
2023-02-11T01:33:23.388Z,1.84
2023-02-11T01:38:26.724Z,1.79
2023-02-11T01:43:32.393Z,1.82
2023-02-11T01:48:41.750Z,1.85
2023-02-11T01:54:03.706Z,1.85
2023-02-11T01:59:12.858Z,1.80
2023-02-11T02:04:19.041Z,1.73
2023-02-11T02:09:26.858Z,1.77
2023-02-11T02:14:29.038Z,1.81
2023-02-11T02:19:57.809Z,1.79
2023-02-11T02:25:08.561Z,1.78
2023-02-11T02:30:43.243Z,1.75
2023-02-11T02:35:47.750Z,1.85
2023-02-11T02:40:57.029Z,1.85
2023-02-11T02:46:11.595Z,1.81
2023-02-11T02:51:50.842Z,1.78
2023-02-11T02:57:26.563Z,1.74
2023-02-11T03:02:59.033Z,1.87
2023-02-11T03:08:42.337Z,1.90
2023-02-11T03:13:46.292Z,1.88
2023-02-11T03:18:52.784Z,1.82
2023-02-11T03:23:56.825Z,1.78
2023-02-11T03:29:07.165Z,1.83
2023-02-11T03:34:23.774Z,1.92
2023-02-11T03:39:36.244Z,1.94
2023-02-11T03:44:42.828Z,1.89
2023-02-11T03:49:48.278Z,1.83
2023-02-11T03:54:53.873Z,1.79
2023-02-11T03:59:58.266Z,1.89
2023-02-11T04:05:00.254Z,1.94
2023-02-11T04:10:02.100Z,1.89
2023-02-11T04:15:04.590Z,1.84
2023-02-11T04:20:07.349Z,1.79
2023-02-11T04:25:10.158Z,1.76
2023-02-11T04:30:12.452Z,1.81
2023-02-11T04:35:14.376Z,1.84
2023-02-11T04:40:15.923Z,1.80
2023-02-11T04:45:17.500Z,1.78
2023-02-11T04:50:19.072Z,1.72
2023-02-11T04:55:20.762Z,1.68
2023-02-11T05:00:24.243Z,1.75
2023-02-11T05:05:25.817Z,1.73
2023-02-11T05:10:27.506Z,1.63
2023-02-11T05:15:29.657Z,1.50
2023-02-11T05:20:31.179Z,1.46
2023-02-11T05:25:33.327Z,1.56
2023-02-11T05:30:34.900Z,1.62
2023-02-11T05:35:36.457Z,1.62
2023-02-11T05:40:38.205Z,1.60
2023-02-11T05:45:39.732Z,1.59
2023-02-11T05:50:41.871Z,1.69
2023-02-11T05:55:43.457Z,1.69
2023-02-11T06:00:44.972Z,1.67
2023-02-11T06:05:46.843Z,1.59
2023-02-11T06:10:48.358Z,1.52
2023-02-11T06:16:00.280Z,1.56
2023-02-11T06:21:01.909Z,1.63
2023-02-11T06:26:08.851Z,1.67
2023-02-11T06:31:11.840Z,1.63
2023-02-11T06:36:16.409Z,1.66
2023-02-11T06:41:22.636Z,1.82
2023-02-11T06:46:24.361Z,1.86
2023-02-11T06:51:26.069Z,1.88
2023-02-11T06:56:27.609Z,1.89
2023-02-11T07:01:29.263Z,1.91
2023-02-11T07:06:30.805Z,1.97
2023-02-11T07:11:33.529Z,2.28
2023-02-11T07:16:35.561Z,2.44
2023-02-11T07:21:37.443Z,2.54
2023-02-11T07:26:39.237Z,2.59
2023-02-11T07:31:40.968Z,2.53
2023-02-11T07:36:43.843Z,2.41
2023-02-11T07:41:47.861Z,2.33
2023-02-11T07:46:49.502Z,2.41
2023-02-11T07:51:51.545Z,2.49
2023-02-11T07:56:53.082Z,2.53
2023-02-11T08:01:54.664Z,2.42
2023-02-11T08:06:59.115Z,2.31
2023-02-11T08:12:00.936Z,2.32
2023-02-11T08:17:03.081Z,2.43
2023-02-11T08:22:04.780Z,2.59
2023-02-11T08:27:06.306Z,2.70
2023-02-11T08:32:08.851Z,2.75
2023-02-11T08:37:10.645Z,2.83
2023-02-11T08:42:12.217Z,2.86
2023-02-11T08:47:14.140Z,2.85
2023-02-11T08:52:15.729Z,2.79
2023-02-11T08:57:17.298Z,2.73
2023-02-11T09:02:18.839Z,2.65
2023-02-11T09:07:20.544Z,2.53
2023-02-11T09:12:22.053Z,2.64
2023-02-11T09:17:23.547Z,2.74
2023-02-11T09:22:25.093Z,2.84
2023-02-11T09:27:26.560Z,2.94
2023-02-11T09:32:28.084Z,2.99
2023-02-11T09:37:29.641Z,2.96
2023-02-11T09:42:37.059Z,3.00
2023-02-11T09:48:03.272Z,3.07
2023-02-11T09:53:18.166Z,3.17
2023-02-11T09:58:25.015Z,3.16
2023-02-11T10:03:46.209Z,3.06
2023-02-11T10:08:47.648Z,2.97
2023-02-11T10:14:04.719Z,3.02
2023-02-11T10:19:24.850Z,2.97
2023-02-11T10:24:29.148Z,2.92
2023-02-11T10:29:45.626Z,2.92
2023-02-11T10:34:47.716Z,3.00
2023-02-11T10:39:49.212Z,3.03
2023-02-11T10:44:59.676Z,2.99
2023-02-11T10:50:03.777Z,2.99
2023-02-11T10:55:15.070Z,3.03
2023-02-11T11:00:28.899Z,3.00
2023-02-11T11:05:34.286Z,2.90
2023-02-11T11:10:43.667Z,2.90
2023-02-11T11:15:45.306Z,2.90
2023-02-11T11:21:00.553Z,2.83
2023-02-11T11:26:17.214Z,2.90
2023-02-11T11:31:30.163Z,2.92
2023-02-11T11:36:39.634Z,2.87
2023-02-11T11:41:53.674Z,2.96
2023-02-11T11:47:16.594Z,3.00
2023-02-11T11:52:37.640Z,2.96
2023-02-11T11:57:39.716Z,3.01
2023-02-11T12:03:03.930Z,3.04
2023-02-11T12:08:22.337Z,2.98
2023-02-11T12:13:32.113Z,3.07
2023-02-11T12:19:03.965Z,3.11
2023-02-11T12:24:24.133Z,3.06
2023-02-11T12:29:51.984Z,3.13
2023-02-11T12:35:13.390Z,3.14
2023-02-11T12:40:31.249Z,3.14
2023-02-11T12:45:59.342Z,3.19
2023-02-11T12:51:32.068Z,3.22
2023-02-11T12:56:42.604Z,3.19
2023-02-11T13:01:45.057Z,3.26
2023-02-11T13:06:57.632Z,3.24
2023-02-11T13:12:23.519Z,3.21
2023-02-11T13:17:34.106Z,3.31
2023-02-11T13:22:44.700Z,3.39
2023-02-11T13:28:09.735Z,3.41
2023-02-11T13:33:19.139Z,3.47
2023-02-11T13:38:24.054Z,3.48
2023-02-11T13:43:28.950Z,3.44
2023-02-11T13:48:32.790Z,3.50
2023-02-11T13:53:54.749Z,3.57
2023-02-11T13:58:56.890Z,3.57
2023-02-11T14:04:41.704Z,3.65
2023-02-11T14:09:43.358Z,3.78
2023-02-11T14:15:14.778Z,3.81
2023-02-11T14:20:43.336Z,3.87
2023-02-11T14:25:59.118Z,3.93
2023-02-11T14:31:18.525Z,3.96
2023-02-11T14:36:31.209Z,4.06
2023-02-11T14:41:43.123Z,4.14
2023-02-11T14:46:47.633Z,4.12
2023-02-11T14:51:49.237Z,4.18
2023-02-11T14:57:17.641Z,4.23
2023-02-11T15:02:24.392Z,4.22
2023-02-11T15:07:26.523Z,4.24
2023-02-11T15:12:28.593Z,4.31
2023-02-11T15:17:32.139Z,4.34
2023-02-11T15:22:37.005Z,4.29
2023-02-11T15:27:47.528Z,4.37
2023-02-11T15:32:50.752Z,4.42
2023-02-11T15:37:52.550Z,4.40
2023-02-11T15:42:58.991Z,4.45
2023-02-11T15:48:09.922Z,4.52
2023-02-11T15:53:27.237Z,4.49
2023-02-11T15:58:29.220Z,4.52
2023-02-11T16:03:33.064Z,4.49
2023-02-11T16:08:35.511Z,4.51
2023-02-11T16:13:46.622Z,4.58
2023-02-11T16:19:03.126Z,4.57
2023-02-11T16:24:07.973Z,4.58
2023-02-11T16:29:20.394Z,4.65
2023-02-11T16:34:24.422Z,4.62
2023-02-11T16:39:25.808Z,4.60
2023-02-11T16:44:28.136Z,4.65
2023-02-11T16:49:32.331Z,4.63
2023-02-11T16:54:34.040Z,4.57
2023-02-11T16:59:35.593Z,4.64
2023-02-11T17:04:37.171Z,4.69
2023-02-11T17:09:38.805Z,4.66
2023-02-11T17:14:40.762Z,4.69
2023-02-11T17:19:42.445Z,4.70
2023-02-11T17:24:44.116Z,4.68
2023-02-11T17:29:45.636Z,4.73
2023-02-11T17:34:47.188Z,4.75
2023-02-11T17:39:49.894Z,4.71
2023-02-11T17:44:51.371Z,4.74
2023-02-11T17:49:52.886Z,4.75
2023-02-11T17:54:55.343Z,4.72
2023-02-11T17:59:57.256Z,4.77
2023-02-11T18:04:59.041Z,4.75
2023-02-11T18:10:00.750Z,4.71
2023-02-11T18:15:02.766Z,4.73
2023-02-11T18:20:05.510Z,4.75
2023-02-11T18:25:08.799Z,4.71
2023-02-11T18:30:19.191Z,4.70
2023-02-11T18:35:21.047Z,4.73
2023-02-11T18:40:22.582Z,4.70
2023-02-11T18:45:24.593Z,4.77
2023-02-11T18:50:26.174Z,4.79
2023-02-11T18:55:27.795Z,4.73
2023-02-11T19:00:31.612Z,4.76
2023-02-11T19:05:41.661Z,4.78
2023-02-11T19:10:45.931Z,4.76
2023-02-11T19:15:47.703Z,4.79
2023-02-11T19:20:49.199Z,4.77
2023-02-11T19:25:51.583Z,4.73
2023-02-11T19:30:53.684Z,4.74
2023-02-11T19:35:55.231Z,4.74
2023-02-11T19:40:57.818Z,4.75
2023-02-11T19:46:02.102Z,4.85
2023-02-11T19:51:13.200Z,4.82
2023-02-11T19:56:15.795Z,4.82
2023-02-11T20:01:20.324Z,4.86
2023-02-11T20:06:28.085Z,4.86
2023-02-11T20:11:31.316Z,4.88
2023-02-11T20:16:47.489Z,4.90
2023-02-11T20:21:52.558Z,4.88
2023-02-11T20:26:56.976Z,4.90
2023-02-11T20:31:58.749Z,4.93
2023-02-11T20:37:00.640Z,4.88
2023-02-11T20:42:02.394Z,4.82
2023-02-11T20:47:04.033Z,4.83
2023-02-11T20:52:05.601Z,4.82
2023-02-11T20:57:07.485Z,4.91
2023-02-11T21:02:10.314Z,4.90
2023-02-11T21:07:11.965Z,4.87
2023-02-11T21:12:13.458Z,4.90
2023-02-11T21:17:15.066Z,4.89
2023-02-11T21:22:16.562Z,4.86
2023-02-11T21:27:18.267Z,4.89
2023-02-11T21:32:19.784Z,4.87
2023-02-11T21:37:23.251Z,4.83
2023-02-11T21:42:24.724Z,4.92
2023-02-11T21:47:26.258Z,4.92
2023-02-11T21:52:27.801Z,4.85
2023-02-11T21:57:29.624Z,4.91
2023-02-11T22:02:31.229Z,4.79
2023-02-11T22:07:35.653Z,4.65
2023-02-11T22:12:37.195Z,4.52
2023-02-11T22:17:38.792Z,4.42
2023-02-11T22:22:40.266Z,4.37
2023-02-11T22:27:41.801Z,4.33
2023-02-11T22:32:43.385Z,4.22
2023-02-11T22:37:44.948Z,4.22
2023-02-11T22:42:46.434Z,4.18
2023-02-11T22:47:47.912Z,4.07
2023-02-11T22:52:49.441Z,3.99
2023-02-11T22:57:50.968Z,3.98
2023-02-11T23:02:52.512Z,3.85
2023-02-11T23:07:54.510Z,3.63
2023-02-11T23:12:56.004Z,3.52
2023-02-11T23:17:57.601Z,3.25
2023-02-11T23:22:59.113Z,3.04
2023-02-11T23:28:02.247Z,2.84
2023-02-11T23:33:03.870Z,2.78
2023-02-11T23:38:05.369Z,2.80
2023-02-11T23:43:06.879Z,2.78
2023-02-11T23:48:09.007Z,2.57
2023-02-11T23:53:13.774Z,2.52
2023-02-11T23:58:15.887Z,2.45
